sensor_id;sensor_type;location;lat;lon;timestamp;P1;durP1;ratioP1;P2;durP2;ratioP2
26656;SDS011;14279;50.010;8.260;2023-03-14T00:01:13;4.97;;;1.57;;
26656;SDS011;14279;50.010;8.260;2023-03-14T00:03:52;2.87;;;1.43;;
26656;SDS011;14279;50.010;8.260;2023-03-14T00:06:31;2.03;;;1.40;;
26656;SDS011;14279;50.010;8.260;2023-03-14T00:08:57;4.83;;;1.60;;
26656;SDS011;14279;50.010;8.260;2023-03-14T00:11:35;5.30;;;1.37;;
26656;SDS011;14279;50.010;8.260;2023-03-14T00:14:13;3.53;;;1.43;;
26656;SDS011;14279;50.010;8.260;2023-03-14T00:16:45;3.93;;;1.80;;
26656;SDS011;14279;50.010;8.260;2023-03-14T00:19:21;5.13;;;1.53;;
26656;SDS011;14279;50.010;8.260;2023-03-14T00:21:56;2.70;;;1.40;;
26656;SDS011;14279;50.010;8.260;2023-03-14T00:24:29;3.03;;;1.53;;
26656;SDS011;14279;50.010;8.260;2023-03-14T00:27:01;6.63;;;1.23;;
26656;SDS011;14279;50.010;8.260;2023-03-14T00:29:37;3.80;;;1.40;;
26656;SDS011;14279;50.010;8.260;2023-03-14T00:32:22;4.60;;;1.77;;
26656;SDS011;14279;50.010;8.260;2023-03-14T00:34:48;4.53;;;1.30;;
26656;SDS011;14279;50.010;8.260;2023-03-14T00:37:19;5.83;;;1.63;;
26656;SDS011;14279;50.010;8.260;2023-03-14T00:39:53;8.83;;;2.30;;
26656;SDS011;14279;50.010;8.260;2023-03-14T00:42:24;5.80;;;1.77;;
26656;SDS011;14279;50.010;8.260;2023-03-14T00:44:50;3.40;;;1.80;;
26656;SDS011;14279;50.010;8.260;2023-03-14T00:47:24;6.03;;;2.00;;
26656;SDS011;14279;50.010;8.260;2023-03-14T00:49:53;8.07;;;2.10;;
26656;SDS011;14279;50.010;8.260;2023-03-14T00:52:24;9.70;;;1.90;;
26656;SDS011;14279;50.010;8.260;2023-03-14T00:54:56;2.87;;;1.50;;
26656;SDS011;14279;50.010;8.260;2023-03-14T00:57:29;7.27;;;1.63;;
26656;SDS011;14279;50.010;8.260;2023-03-14T01:00:02;3.27;;;1.33;;
26656;SDS011;14279;50.010;8.260;2023-03-14T01:02:36;7.73;;;2.17;;
26656;SDS011;14279;50.010;8.260;2023-03-14T01:05:02;6.57;;;2.23;;
26656;SDS011;14279;50.010;8.260;2023-03-14T01:07:32;8.17;;;1.80;;
26656;SDS011;14279;50.010;8.260;2023-03-14T01:10:05;7.20;;;1.70;;
26656;SDS011;14279;50.010;8.260;2023-03-14T01:12:37;10.03;;;2.70;;
26656;SDS011;14279;50.010;8.260;2023-03-14T01:15:03;5.17;;;1.73;;
26656;SDS011;14279;50.010;8.260;2023-03-14T01:17:31;4.10;;;1.73;;
26656;SDS011;14279;50.010;8.260;2023-03-14T01:20:02;8.93;;;1.73;;
26656;SDS011;14279;50.010;8.260;2023-03-14T01:22:29;3.97;;;1.27;;
26656;SDS011;14279;50.010;8.260;2023-03-14T01:24:58;10.30;;;2.10;;
26656;SDS011;14279;50.010;8.260;2023-03-14T01:27:26;4.40;;;1.60;;
26656;SDS011;14279;50.010;8.260;2023-03-14T01:29:55;2.37;;;1.20;;
26656;SDS011;14279;50.010;8.260;2023-03-14T01:32:35;5.13;;;1.60;;
26656;SDS011;14279;50.010;8.260;2023-03-14T01:35:14;9.30;;;2.10;;
26656;SDS011;14279;50.010;8.260;2023-03-14T01:37:51;8.90;;;2.07;;
26656;SDS011;14279;50.010;8.260;2023-03-14T01:40:20;5.73;;;1.87;;
26656;SDS011;14279;50.010;8.260;2023-03-14T01:42:57;6.23;;;2.20;;
26656;SDS011;14279;50.010;8.260;2023-03-14T01:48:40;5.27;;;1.70;;
26656;SDS011;14279;50.010;8.260;2023-03-14T01:51:14;4.77;;;1.60;;
26656;SDS011;14279;50.010;8.260;2023-03-14T01:56:56;9.50;;;1.90;;
26656;SDS011;14279;50.010;8.260;2023-03-14T01:59:29;5.53;;;2.13;;
26656;SDS011;14279;50.010;8.260;2023-03-14T02:02:04;4.40;;;2.00;;
26656;SDS011;14279;50.010;8.260;2023-03-14T02:04:33;6.73;;;2.00;;
26656;SDS011;14279;50.010;8.260;2023-03-14T02:07:03;6.43;;;1.90;;
26656;SDS011;14279;50.010;8.260;2023-03-14T02:09:50;10.80;;;2.00;;
26656;SDS011;14279;50.010;8.260;2023-03-14T02:12:19;4.20;;;1.73;;
26656;SDS011;14279;50.010;8.260;2023-03-14T02:14:50;6.40;;;1.40;;
26656;SDS011;14279;50.010;8.260;2023-03-14T02:17:16;8.50;;;2.50;;
26656;SDS011;14279;50.010;8.260;2023-03-14T02:19:59;6.20;;;1.60;;
26656;SDS011;14279;50.010;8.260;2023-03-14T02:22:30;7.00;;;1.80;;
26656;SDS011;14279;50.010;8.260;2023-03-14T02:25:08;6.50;;;1.80;;
26656;SDS011;14279;50.010;8.260;2023-03-14T02:27:44;6.60;;;1.50;;
26656;SDS011;14279;50.010;8.260;2023-03-14T02:30:19;5.27;;;2.30;;
26656;SDS011;14279;50.010;8.260;2023-03-14T02:32:55;3.23;;;1.70;;
26656;SDS011;14279;50.010;8.260;2023-03-14T02:35:42;5.33;;;1.60;;
26656;SDS011;14279;50.010;8.260;2023-03-14T02:38:47;5.83;;;1.53;;
26656;SDS011;14279;50.010;8.260;2023-03-14T02:41:18;7.03;;;1.80;;
26656;SDS011;14279;50.010;8.260;2023-03-14T02:43:44;10.87;;;1.63;;
26656;SDS011;14279;50.010;8.260;2023-03-14T02:46:13;6.60;;;2.30;;
26656;SDS011;14279;50.010;8.260;2023-03-14T02:48:43;4.07;;;1.70;;
26656;SDS011;14279;50.010;8.260;2023-03-14T02:51:13;4.00;;;2.07;;
26656;SDS011;14279;50.010;8.260;2023-03-14T02:53:40;4.77;;;2.10;;
26656;SDS011;14279;50.010;8.260;2023-03-14T02:56:06;5.97;;;2.00;;
26656;SDS011;14279;50.010;8.260;2023-03-14T02:58:33;4.63;;;2.10;;
26656;SDS011;14279;50.010;8.260;2023-03-14T03:00:58;9.93;;;2.23;;
26656;SDS011;14279;50.010;8.260;2023-03-14T03:03:26;12.67;;;1.97;;
26656;SDS011;14279;50.010;8.260;2023-03-14T03:05:57;7.37;;;1.83;;
26656;SDS011;14279;50.010;8.260;2023-03-14T03:08:52;5.53;;;1.93;;
26656;SDS011;14279;50.010;8.260;2023-03-14T03:11:23;6.67;;;2.00;;
26656;SDS011;14279;50.010;8.260;2023-03-14T03:13:51;6.40;;;1.83;;
26656;SDS011;14279;50.010;8.260;2023-03-14T03:16:22;5.40;;;1.87;;
26656;SDS011;14279;50.010;8.260;2023-03-14T03:18:59;7.73;;;2.50;;
26656;SDS011;14279;50.010;8.260;2023-03-14T03:22:00;11.70;;;1.70;;
26656;SDS011;14279;50.010;8.260;2023-03-14T03:24:28;5.73;;;1.60;;
26656;SDS011;14279;50.010;8.260;2023-03-14T03:26:56;7.13;;;2.27;;
26656;SDS011;14279;50.010;8.260;2023-03-14T03:29:29;7.83;;;1.53;;
26656;SDS011;14279;50.010;8.260;2023-03-14T03:31:55;4.77;;;1.77;;
26656;SDS011;14279;50.010;8.260;2023-03-14T03:34:24;5.80;;;2.10;;
26656;SDS011;14279;50.010;8.260;2023-03-14T03:36:58;8.43;;;1.90;;
26656;SDS011;14279;50.010;8.260;2023-03-14T03:39:37;7.80;;;1.67;;
26656;SDS011;14279;50.010;8.260;2023-03-14T03:42:07;6.90;;;1.50;;
26656;SDS011;14279;50.010;8.260;2023-03-14T03:44:38;7.73;;;1.80;;
26656;SDS011;14279;50.010;8.260;2023-03-14T03:47:07;11.80;;;2.00;;
26656;SDS011;14279;50.010;8.260;2023-03-14T03:49:35;6.07;;;1.60;;
26656;SDS011;14279;50.010;8.260;2023-03-14T03:52:04;11.83;;;2.37;;
26656;SDS011;14279;50.010;8.260;2023-03-14T03:54:35;4.23;;;1.50;;
26656;SDS011;14279;50.010;8.260;2023-03-14T03:57:05;7.13;;;1.87;;
26656;SDS011;14279;50.010;8.260;2023-03-14T03:59:36;4.23;;;1.63;;
26656;SDS011;14279;50.010;8.260;2023-03-14T04:02:11;7.33;;;1.90;;
26656;SDS011;14279;50.010;8.260;2023-03-14T04:04:44;4.87;;;1.60;;
26656;SDS011;14279;50.010;8.260;2023-03-14T04:07:13;5.93;;;1.83;;
26656;SDS011;14279;50.010;8.260;2023-03-14T04:09:41;5.20;;;1.93;;
26656;SDS011;14279;50.010;8.260;2023-03-14T04:12:09;7.57;;;1.70;;
26656;SDS011;14279;50.010;8.260;2023-03-14T04:14:36;8.90;;;1.50;;
26656;SDS011;14279;50.010;8.260;2023-03-14T04:17:01;8.43;;;2.30;;
26656;SDS011;14279;50.010;8.260;2023-03-14T04:19:27;2.70;;;1.50;;
26656;SDS011;14279;50.010;8.260;2023-03-14T04:21:58;8.33;;;2.20;;
26656;SDS011;14279;50.010;8.260;2023-03-14T04:24:40;3.37;;;1.40;;
26656;SDS011;14279;50.010;8.260;2023-03-14T04:27:05;5.70;;;1.63;;
26656;SDS011;14279;50.010;8.260;2023-03-14T04:29:31;6.00;;;1.80;;
26656;SDS011;14279;50.010;8.260;2023-03-14T04:31:57;10.60;;;1.73;;
26656;SDS011;14279;50.010;8.260;2023-03-14T04:34:25;3.90;;;1.63;;
26656;SDS011;14279;50.010;8.260;2023-03-14T04:36:53;4.90;;;1.77;;
26656;SDS011;14279;50.010;8.260;2023-03-14T04:39:19;2.83;;;1.37;;
26656;SDS011;14279;50.010;8.260;2023-03-14T04:41:45;4.37;;;1.53;;
26656;SDS011;14279;50.010;8.260;2023-03-14T04:44:11;6.70;;;1.60;;
26656;SDS011;14279;50.010;8.260;2023-03-14T04:46:36;5.47;;;1.80;;
26656;SDS011;14279;50.010;8.260;2023-03-14T04:49:05;8.00;;;1.43;;
26656;SDS011;14279;50.010;8.260;2023-03-14T04:51:47;5.80;;;1.50;;
26656;SDS011;14279;50.010;8.260;2023-03-14T04:54:15;6.47;;;1.73;;
26656;SDS011;14279;50.010;8.260;2023-03-14T04:56:46;3.23;;;1.40;;
26656;SDS011;14279;50.010;8.260;2023-03-14T04:59:17;3.90;;;1.20;;
26656;SDS011;14279;50.010;8.260;2023-03-14T05:02:01;5.40;;;1.50;;
26656;SDS011;14279;50.010;8.260;2023-03-14T05:04:29;3.07;;;1.60;;
26656;SDS011;14279;50.010;8.260;2023-03-14T05:06:59;4.60;;;1.63;;
26656;SDS011;14279;50.010;8.260;2023-03-14T05:09:28;9.90;;;2.10;;
26656;SDS011;14279;50.010;8.260;2023-03-14T05:11:54;5.50;;;1.37;;
26656;SDS011;14279;50.010;8.260;2023-03-14T05:14:23;6.47;;;1.57;;
26656;SDS011;14279;50.010;8.260;2023-03-14T05:19:51;6.20;;;1.93;;
26656;SDS011;14279;50.010;8.260;2023-03-14T05:22:17;5.93;;;1.53;;
26656;SDS011;14279;50.010;8.260;2023-03-14T05:24:46;9.60;;;1.90;;
26656;SDS011;14279;50.010;8.260;2023-03-14T05:27:13;7.70;;;1.30;;
26656;SDS011;14279;50.010;8.260;2023-03-14T05:29:39;2.60;;;1.10;;
26656;SDS011;14279;50.010;8.260;2023-03-14T05:32:09;3.27;;;1.27;;
26656;SDS011;14279;50.010;8.260;2023-03-14T05:34:40;7.17;;;1.67;;
26656;SDS011;14279;50.010;8.260;2023-03-14T05:37:16;7.13;;;1.60;;
26656;SDS011;14279;50.010;8.260;2023-03-14T05:39:52;6.10;;;1.53;;
26656;SDS011;14279;50.010;8.260;2023-03-14T05:42:23;4.70;;;1.40;;
26656;SDS011;14279;50.010;8.260;2023-03-14T05:44:48;3.60;;;1.50;;
26656;SDS011;14279;50.010;8.260;2023-03-14T05:47:19;5.57;;;1.57;;
26656;SDS011;14279;50.010;8.260;2023-03-14T05:49:47;5.40;;;1.73;;
26656;SDS011;14279;50.010;8.260;2023-03-14T05:52:13;5.43;;;1.57;;
26656;SDS011;14279;50.010;8.260;2023-03-14T05:54:42;3.47;;;1.10;;
26656;SDS011;14279;50.010;8.260;2023-03-14T05:57:07;3.80;;;1.30;;
26656;SDS011;14279;50.010;8.260;2023-03-14T05:59:36;3.73;;;1.30;;
26656;SDS011;14279;50.010;8.260;2023-03-14T06:02:02;3.80;;;1.50;;
26656;SDS011;14279;50.010;8.260;2023-03-14T06:04:28;2.80;;;1.53;;
26656;SDS011;14279;50.010;8.260;2023-03-14T06:06:53;7.57;;;1.97;;
26656;SDS011;14279;50.010;8.260;2023-03-14T06:09:19;2.30;;;1.07;;
26656;SDS011;14279;50.010;8.260;2023-03-14T06:11:46;5.97;;;1.50;;
26656;SDS011;14279;50.010;8.260;2023-03-14T06:14:14;11.50;;;1.90;;
26656;SDS011;14279;50.010;8.260;2023-03-14T06:16:39;5.20;;;1.43;;
26656;SDS011;14279;50.010;8.260;2023-03-14T06:19:04;5.10;;;1.13;;
26656;SDS011;14279;50.010;8.260;2023-03-14T06:21:30;3.83;;;0.93;;
26656;SDS011;14279;50.010;8.260;2023-03-14T06:23:55;4.23;;;1.50;;
26656;SDS011;14279;50.010;8.260;2023-03-14T06:26:20;2.73;;;1.30;;
26656;SDS011;14279;50.010;8.260;2023-03-14T06:28:48;3.00;;;1.30;;
26656;SDS011;14279;50.010;8.260;2023-03-14T06:31:13;2.57;;;1.50;;
26656;SDS011;14279;50.010;8.260;2023-03-14T06:33:38;1.67;;;1.20;;
26656;SDS011;14279;50.010;8.260;2023-03-14T06:36:04;2.93;;;1.50;;
26656;SDS011;14279;50.010;8.260;2023-03-14T06:38:29;2.90;;;1.50;;
26656;SDS011;14279;50.010;8.260;2023-03-14T06:40:54;5.50;;;1.40;;
26656;SDS011;14279;50.010;8.260;2023-03-14T06:43:19;2.43;;;1.70;;
26656;SDS011;14279;50.010;8.260;2023-03-14T06:45:45;2.87;;;1.43;;
26656;SDS011;14279;50.010;8.260;2023-03-14T06:48:10;3.23;;;1.23;;
26656;SDS011;14279;50.010;8.260;2023-03-14T06:50:35;5.90;;;1.47;;
26656;SDS011;14279;50.010;8.260;2023-03-14T06:53:01;5.90;;;1.83;;
26656;SDS011;14279;50.010;8.260;2023-03-14T06:55:26;4.20;;;1.47;;
26656;SDS011;14279;50.010;8.260;2023-03-14T06:57:51;4.10;;;1.70;;
26656;SDS011;14279;50.010;8.260;2023-03-14T07:00:16;2.60;;;1.20;;
26656;SDS011;14279;50.010;8.260;2023-03-14T07:02:42;1.50;;;1.10;;
26656;SDS011;14279;50.010;8.260;2023-03-14T07:05:07;7.97;;;1.50;;
26656;SDS011;14279;50.010;8.260;2023-03-14T07:07:44;3.07;;;1.50;;
26656;SDS011;14279;50.010;8.260;2023-03-14T07:10:10;4.20;;;1.33;;
26656;SDS011;14279;50.010;8.260;2023-03-14T07:12:36;5.30;;;1.50;;
26656;SDS011;14279;50.010;8.260;2023-03-14T07:15:01;2.20;;;1.20;;
26656;SDS011;14279;50.010;8.260;2023-03-14T07:17:26;2.17;;;1.10;;
26656;SDS011;14279;50.010;8.260;2023-03-14T07:19:51;4.70;;;1.60;;
26656;SDS011;14279;50.010;8.260;2023-03-14T07:22:23;3.50;;;1.50;;
26656;SDS011;14279;50.010;8.260;2023-03-14T07:24:55;2.03;;;1.20;;
26656;SDS011;14279;50.010;8.260;2023-03-14T07:27:21;1.83;;;1.23;;
26656;SDS011;14279;50.010;8.260;2023-03-14T07:29:46;4.30;;;1.80;;
26656;SDS011;14279;50.010;8.260;2023-03-14T07:32:12;9.67;;;1.50;;
26656;SDS011;14279;50.010;8.260;2023-03-14T07:34:40;5.40;;;1.20;;
26656;SDS011;14279;50.010;8.260;2023-03-14T07:37:05;4.10;;;1.43;;
26656;SDS011;14279;50.010;8.260;2023-03-14T07:39:31;7.37;;;1.67;;
26656;SDS011;14279;50.010;8.260;2023-03-14T07:42:08;4.73;;;1.83;;
26656;SDS011;14279;50.010;8.260;2023-03-14T07:44:35;3.90;;;1.57;;
26656;SDS011;14279;50.010;8.260;2023-03-14T07:47:15;4.90;;;1.23;;
26656;SDS011;14279;50.010;8.260;2023-03-14T07:53:33;2.70;;;1.60;;
26656;SDS011;14279;50.010;8.260;2023-03-14T07:56:53;5.43;;;1.33;;
26656;SDS011;14279;50.010;8.260;2023-03-14T08:02:17;2.50;;;1.50;;
26656;SDS011;14279;50.010;8.260;2023-03-14T08:04:47;4.03;;;1.33;;
26656;SDS011;14279;50.010;8.260;2023-03-14T08:07:19;2.40;;;1.30;;
26656;SDS011;14279;50.010;8.260;2023-03-14T08:09:44;3.63;;;1.60;;
26656;SDS011;14279;50.010;8.260;2023-03-14T08:12:09;6.90;;;2.00;;
26656;SDS011;14279;50.010;8.260;2023-03-14T08:14:35;2.50;;;1.30;;
26656;SDS011;14279;50.010;8.260;2023-03-14T08:17:03;3.67;;;1.67;;
26656;SDS011;14279;50.010;8.260;2023-03-14T08:19:32;2.00;;;1.30;;
26656;SDS011;14279;50.010;8.260;2023-03-14T08:22:00;4.17;;;1.77;;
26656;SDS011;14279;50.010;8.260;2023-03-14T08:39:40;4.93;;;1.60;;
26656;SDS011;14279;50.010;8.260;2023-03-14T08:50:48;2.90;;;1.67;;
26656;SDS011;14279;50.010;8.260;2023-03-14T08:53:13;4.63;;;1.90;;
26656;SDS011;14279;50.010;8.260;2023-03-14T08:55:38;4.93;;;1.60;;
26656;SDS011;14279;50.010;8.260;2023-03-14T08:58:04;4.00;;;1.57;;
26656;SDS011;14279;50.010;8.260;2023-03-14T09:00:29;2.37;;;1.20;;
26656;SDS011;14279;50.010;8.260;2023-03-14T09:02:54;5.07;;;1.73;;
26656;SDS011;14279;50.010;8.260;2023-03-14T09:05:22;3.27;;;1.83;;
26656;SDS011;14279;50.010;8.260;2023-03-14T09:07:47;1.67;;;1.37;;
26656;SDS011;14279;50.010;8.260;2023-03-14T09:10:20;5.07;;;1.70;;
26656;SDS011;14279;50.010;8.260;2023-03-14T09:12:45;5.63;;;1.43;;
26656;SDS011;14279;50.010;8.260;2023-03-14T09:15:11;2.67;;;1.10;;
26656;SDS011;14279;50.010;8.260;2023-03-14T09:17:36;2.40;;;1.30;;
26656;SDS011;14279;50.010;8.260;2023-03-14T09:20:02;1.37;;;1.27;;
26656;SDS011;14279;50.010;8.260;2023-03-14T09:22:31;1.93;;;1.30;;
26656;SDS011;14279;50.010;8.260;2023-03-14T09:24:57;4.70;;;1.40;;
26656;SDS011;14279;50.010;8.260;2023-03-14T09:27:23;4.40;;;1.50;;
26656;SDS011;14279;50.010;8.260;2023-03-14T09:29:48;4.30;;;1.10;;
26656;SDS011;14279;50.010;8.260;2023-03-14T09:32:19;2.20;;;1.50;;
26656;SDS011;14279;50.010;8.260;2023-03-14T09:34:51;1.47;;;1.30;;
26656;SDS011;14279;50.010;8.260;2023-03-14T09:37:25;1.93;;;1.50;;
26656;SDS011;14279;50.010;8.260;2023-03-14T09:39:50;1.43;;;1.17;;
26656;SDS011;14279;50.010;8.260;2023-03-14T09:42:17;6.50;;;1.20;;
26656;SDS011;14279;50.010;8.260;2023-03-14T09:44:49;7.73;;;1.43;;
26656;SDS011;14279;50.010;8.260;2023-03-14T09:47:24;1.20;;;1.10;;
26656;SDS011;14279;50.010;8.260;2023-03-14T09:49:51;1.30;;;1.20;;
26656;SDS011;14279;50.010;8.260;2023-03-14T09:52:20;2.67;;;1.20;;
26656;SDS011;14279;50.010;8.260;2023-03-14T09:54:52;2.73;;;1.20;;
26656;SDS011;14279;50.010;8.260;2023-03-14T09:57:25;2.47;;;1.60;;
26656;SDS011;14279;50.010;8.260;2023-03-14T09:59:51;1.67;;;1.10;;
26656;SDS011;14279;50.010;8.260;2023-03-14T10:02:20;2.63;;;1.00;;
26656;SDS011;14279;50.010;8.260;2023-03-14T10:04:51;2.17;;;1.13;;
26656;SDS011;14279;50.010;8.260;2023-03-14T10:07:18;2.53;;;0.97;;
26656;SDS011;14279;50.010;8.260;2023-03-14T10:09:49;0.97;;;0.97;;
26656;SDS011;14279;50.010;8.260;2023-03-14T10:12:16;1.63;;;1.10;;
26656;SDS011;14279;50.010;8.260;2023-03-14T10:15:25;3.13;;;1.00;;
26656;SDS011;14279;50.010;8.260;2023-03-14T10:17:48;1.73;;;1.20;;
26656;SDS011;14279;50.010;8.260;2023-03-14T10:23:29;2.70;;;1.10;;
26656;SDS011;14279;50.010;8.260;2023-03-14T10:26:05;1.00;;;0.90;;
26656;SDS011;14279;50.010;8.260;2023-03-14T10:28:34;2.33;;;0.80;;
26656;SDS011;14279;50.010;8.260;2023-03-14T10:31:04;3.40;;;1.20;;
26656;SDS011;14279;50.010;8.260;2023-03-14T10:33:31;1.33;;;1.07;;
26656;SDS011;14279;50.010;8.260;2023-03-14T10:41:48;0.80;;;0.80;;
26656;SDS011;14279;50.010;8.260;2023-03-14T10:46:56;2.40;;;0.83;;
26656;SDS011;14279;50.010;8.260;2023-03-14T10:58:25;1.40;;;1.00;;
26656;SDS011;14279;50.010;8.260;2023-03-14T11:03:51;1.57;;;1.37;;
26656;SDS011;14279;50.010;8.260;2023-03-14T11:06:24;1.57;;;1.07;;
26656;SDS011;14279;50.010;8.260;2023-03-14T11:08:58;8.70;;;0.90;;
26656;SDS011;14279;50.010;8.260;2023-03-14T11:11:32;1.30;;;0.80;;
26656;SDS011;14279;50.010;8.260;2023-03-14T11:17:00;3.13;;;0.90;;
26656;SDS011;14279;50.010;8.260;2023-03-14T11:22:50;1.40;;;0.90;;
26656;SDS011;14279;50.010;8.260;2023-03-14T11:25:36;5.80;;;0.70;;
26656;SDS011;14279;50.010;8.260;2023-03-14T11:28:23;1.57;;;0.87;;
26656;SDS011;14279;50.010;8.260;2023-03-14T11:34:16;0.93;;;0.70;;
26656;SDS011;14279;50.010;8.260;2023-03-14T11:36:56;0.87;;;0.77;;
26656;SDS011;14279;50.010;8.260;2023-03-14T11:39:38;1.03;;;0.67;;
26656;SDS011;14279;50.010;8.260;2023-03-14T11:42:04;0.93;;;0.70;;
26656;SDS011;14279;50.010;8.260;2023-03-14T11:44:37;0.60;;;0.60;;
26656;SDS011;14279;50.010;8.260;2023-03-14T11:47:09;0.80;;;0.60;;
26656;SDS011;14279;50.010;8.260;2023-03-14T11:52:28;1.03;;;0.80;;
26656;SDS011;14279;50.010;8.260;2023-03-14T11:57:47;0.90;;;0.60;;
26656;SDS011;14279;50.010;8.260;2023-03-14T12:00:19;2.00;;;0.63;;
26656;SDS011;14279;50.010;8.260;2023-03-14T12:02:57;0.67;;;0.67;;
26656;SDS011;14279;50.010;8.260;2023-03-14T12:05:42;3.07;;;0.60;;
26656;SDS011;14279;50.010;8.260;2023-03-14T12:08:27;0.60;;;0.60;;
26656;SDS011;14279;50.010;8.260;2023-03-14T12:11:36;0.60;;;0.60;;
26656;SDS011;14279;50.010;8.260;2023-03-14T12:16:48;0.70;;;0.70;;
26656;SDS011;14279;50.010;8.260;2023-03-14T12:21:47;0.60;;;0.60;;
26656;SDS011;14279;50.010;8.260;2023-03-14T12:24:19;2.20;;;0.60;;
26656;SDS011;14279;50.010;8.260;2023-03-14T12:27:09;0.67;;;0.60;;
26656;SDS011;14279;50.010;8.260;2023-03-14T12:29:56;0.50;;;0.50;;
26656;SDS011;14279;50.010;8.260;2023-03-14T12:32:24;1.27;;;0.87;;
26656;SDS011;14279;50.010;8.260;2023-03-14T12:34:51;0.80;;;0.80;;
26656;SDS011;14279;50.010;8.260;2023-03-14T12:37:22;0.83;;;0.83;;
26656;SDS011;14279;50.010;8.260;2023-03-14T12:39:56;0.60;;;0.60;;
26656;SDS011;14279;50.010;8.260;2023-03-14T12:45:14;0.70;;;0.50;;
26656;SDS011;14279;50.010;8.260;2023-03-14T12:50:53;2.60;;;0.70;;
26656;SDS011;14279;50.010;8.260;2023-03-14T12:58:47;0.60;;;0.60;;
26656;SDS011;14279;50.010;8.260;2023-03-14T13:01:55;0.60;;;0.60;;
26656;SDS011;14279;50.010;8.260;2023-03-14T13:04:46;0.60;;;0.60;;
26656;SDS011;14279;50.010;8.260;2023-03-14T13:07:13;0.97;;;0.60;;
26656;SDS011;14279;50.010;8.260;2023-03-14T13:09:55;0.60;;;0.60;;
26656;SDS011;14279;50.010;8.260;2023-03-14T13:12:27;0.63;;;0.63;;
26656;SDS011;14279;50.010;8.260;2023-03-14T13:14:57;0.60;;;0.60;;
26656;SDS011;14279;50.010;8.260;2023-03-14T13:17:32;0.80;;;0.80;;
26656;SDS011;14279;50.010;8.260;2023-03-14T13:20:00;0.70;;;0.70;;
26656;SDS011;14279;50.010;8.260;2023-03-14T13:22:30;1.50;;;0.90;;
26656;SDS011;14279;50.010;8.260;2023-03-14T13:25:05;0.70;;;0.70;;
26656;SDS011;14279;50.010;8.260;2023-03-14T13:27:33;2.30;;;0.73;;
26656;SDS011;14279;50.010;8.260;2023-03-14T13:30:04;3.57;;;1.83;;
26656;SDS011;14279;50.010;8.260;2023-03-14T13:32:51;0.90;;;0.80;;
26656;SDS011;14279;50.010;8.260;2023-03-14T13:35:18;1.07;;;0.97;;
26656;SDS011;14279;50.010;8.260;2023-03-14T13:37:46;1.87;;;1.00;;
26656;SDS011;14279;50.010;8.260;2023-03-14T13:40:24;1.83;;;1.20;;
26656;SDS011;14279;50.010;8.260;2023-03-14T13:45:53;0.93;;;0.93;;
26656;SDS011;14279;50.010;8.260;2023-03-14T13:48:22;1.27;;;0.70;;
26656;SDS011;14279;50.010;8.260;2023-03-14T13:50:53;2.93;;;1.10;;
26656;SDS011;14279;50.010;8.260;2023-03-14T13:53:21;1.00;;;0.90;;
26656;SDS011;14279;50.010;8.260;2023-03-14T13:55:47;2.20;;;1.00;;
26656;SDS011;14279;50.010;8.260;2023-03-14T13:58:20;1.10;;;1.10;;
26656;SDS011;14279;50.010;8.260;2023-03-14T14:00:58;1.33;;;1.10;;
26656;SDS011;14279;50.010;8.260;2023-03-14T14:03:26;1.20;;;1.03;;
26656;SDS011;14279;50.010;8.260;2023-03-14T14:05:54;1.20;;;1.10;;
26656;SDS011;14279;50.010;8.260;2023-03-14T14:08:20;4.20;;;1.00;;
26656;SDS011;14279;50.010;8.260;2023-03-14T14:10:46;1.27;;;1.17;;
26656;SDS011;14279;50.010;8.260;2023-03-14T14:13:15;3.07;;;1.10;;
26656;SDS011;14279;50.010;8.260;2023-03-14T14:15:46;1.77;;;1.10;;
26656;SDS011;14279;50.010;8.260;2023-03-14T14:18:15;4.30;;;1.10;;
26656;SDS011;14279;50.010;8.260;2023-03-14T14:20:44;0.93;;;0.90;;
26656;SDS011;14279;50.010;8.260;2023-03-14T14:23:11;1.10;;;1.00;;
26656;SDS011;14279;50.010;8.260;2023-03-14T14:25:39;1.47;;;1.10;;
26656;SDS011;14279;50.010;8.260;2023-03-14T14:28:20;2.23;;;1.50;;
26656;SDS011;14279;50.010;8.260;2023-03-14T14:33:46;1.07;;;1.00;;
26656;SDS011;14279;50.010;8.260;2023-03-14T14:38:51;1.00;;;0.93;;
26656;SDS011;14279;50.010;8.260;2023-03-14T14:41:17;1.40;;;1.00;;
26656;SDS011;14279;50.010;8.260;2023-03-14T14:43:43;1.10;;;1.00;;
26656;SDS011;14279;50.010;8.260;2023-03-14T14:46:08;1.20;;;1.10;;
26656;SDS011;14279;50.010;8.260;2023-03-14T14:48:38;1.70;;;1.43;;
26656;SDS011;14279;50.010;8.260;2023-03-14T14:51:04;1.80;;;1.20;;
26656;SDS011;14279;50.010;8.260;2023-03-14T14:56:06;1.93;;;1.63;;
26656;SDS011;14279;50.010;8.260;2023-03-14T14:58:36;1.40;;;1.30;;
26656;SDS011;14279;50.010;8.260;2023-03-14T15:01:07;1.60;;;1.50;;
26656;SDS011;14279;50.010;8.260;2023-03-14T15:03:41;3.03;;;1.03;;
26656;SDS011;14279;50.010;8.260;2023-03-14T15:06:08;1.37;;;1.20;;
26656;SDS011;14279;50.010;8.260;2023-03-14T15:08:36;0.80;;;0.80;;
26656;SDS011;14279;50.010;8.260;2023-03-14T15:11:02;1.60;;;1.20;;
26656;SDS011;14279;50.010;8.260;2023-03-14T15:13:28;2.93;;;0.87;;
26656;SDS011;14279;50.010;8.260;2023-03-14T15:15:53;1.03;;;0.87;;
26656;SDS011;14279;50.010;8.260;2023-03-14T15:18:20;1.67;;;1.00;;
26656;SDS011;14279;50.010;8.260;2023-03-14T15:20:47;1.90;;;0.80;;
26656;SDS011;14279;50.010;8.260;2023-03-14T15:23:13;1.07;;;1.07;;
26656;SDS011;14279;50.010;8.260;2023-03-14T15:25:40;1.83;;;1.00;;
26656;SDS011;14279;50.010;8.260;2023-03-14T15:28:13;2.43;;;1.00;;
26656;SDS011;14279;50.010;8.260;2023-03-14T15:30:40;1.47;;;1.23;;
26656;SDS011;14279;50.010;8.260;2023-03-14T15:33:06;1.20;;;1.10;;
26656;SDS011;14279;50.010;8.260;2023-03-14T15:35:33;3.40;;;1.30;;
26656;SDS011;14279;50.010;8.260;2023-03-14T15:38:00;1.10;;;1.10;;
26656;SDS011;14279;50.010;8.260;2023-03-14T15:40:25;1.00;;;1.00;;
26656;SDS011;14279;50.010;8.260;2023-03-14T15:42:50;1.20;;;1.00;;
26656;SDS011;14279;50.010;8.260;2023-03-14T15:45:16;1.87;;;1.30;;
26656;SDS011;14279;50.010;8.260;2023-03-14T15:47:41;5.13;;;1.57;;
26656;SDS011;14279;50.010;8.260;2023-03-14T15:50:08;9.17;;;1.90;;
26656;SDS011;14279;50.010;8.260;2023-03-14T15:52:34;1.80;;;1.30;;
26656;SDS011;14279;50.010;8.260;2023-03-14T15:55:00;1.60;;;1.40;;
26656;SDS011;14279;50.010;8.260;2023-03-14T15:57:25;1.10;;;1.10;;
26656;SDS011;14279;50.010;8.260;2023-03-14T15:59:50;1.23;;;1.00;;
26656;SDS011;14279;50.010;8.260;2023-03-14T16:02:15;1.40;;;1.30;;
26656;SDS011;14279;50.010;8.260;2023-03-14T16:04:40;1.63;;;1.20;;
26656;SDS011;14279;50.010;8.260;2023-03-14T16:07:06;1.30;;;1.10;;
26656;SDS011;14279;50.010;8.260;2023-03-14T16:09:31;2.73;;;1.53;;
26656;SDS011;14279;50.010;8.260;2023-03-14T16:11:56;1.97;;;1.53;;
26656;SDS011;14279;50.010;8.260;2023-03-14T16:14:22;1.50;;;1.40;;
26656;SDS011;14279;50.010;8.260;2023-03-14T16:16:48;3.67;;;1.40;;
26656;SDS011;14279;50.010;8.260;2023-03-14T16:19:13;1.80;;;1.50;;
26656;SDS011;14279;50.010;8.260;2023-03-14T16:21:38;1.50;;;1.40;;
26656;SDS011;14279;50.010;8.260;2023-03-14T16:24:04;1.10;;;1.00;;
26656;SDS011;14279;50.010;8.260;2023-03-14T16:26:31;2.67;;;1.30;;
26656;SDS011;14279;50.010;8.260;2023-03-14T16:28:59;2.63;;;2.37;;
26656;SDS011;14279;50.010;8.260;2023-03-14T16:31:24;2.63;;;1.50;;
26656;SDS011;14279;50.010;8.260;2023-03-14T16:33:50;5.93;;;2.10;;
26656;SDS011;14279;50.010;8.260;2023-03-14T16:36:15;4.43;;;1.90;;
26656;SDS011;14279;50.010;8.260;2023-03-14T16:38:41;2.73;;;1.40;;
26656;SDS011;14279;50.010;8.260;2023-03-14T16:43:43;1.83;;;1.20;;
26656;SDS011;14279;50.010;8.260;2023-03-14T16:46:15;1.87;;;1.20;;
26656;SDS011;14279;50.010;8.260;2023-03-14T16:48:41;1.80;;;1.23;;
26656;SDS011;14279;50.010;8.260;2023-03-14T16:51:07;1.00;;;1.00;;
26656;SDS011;14279;50.010;8.260;2023-03-14T16:53:33;2.00;;;1.50;;
26656;SDS011;14279;50.010;8.260;2023-03-14T16:55:59;0.97;;;0.97;;